createdAt,value
2022-08-25T00:00:33.586Z,94.20
2022-08-25T00:05:36.373Z,94.30
2022-08-25T00:10:39.320Z,94.50
2022-08-25T00:15:41.258Z,94.70
2022-08-25T00:20:48.994Z,94.90
2022-08-25T00:25:51.312Z,95.40
2022-08-25T00:30:53.114Z,95.70
2022-08-25T00:35:56.392Z,96.00
2022-08-25T00:41:07.929Z,96.10
2022-08-25T00:46:11.416Z,96.20
2022-08-25T00:51:16.717Z,96.40
2022-08-25T00:56:22.042Z,96.50
2022-08-25T01:01:24.349Z,96.50
2022-08-25T01:06:28.107Z,96.70
2022-08-25T01:11:29.900Z,96.90
2022-08-25T01:16:35.799Z,96.90
2022-08-25T01:21:44.049Z,97.10
2022-08-25T01:26:45.787Z,97.40
2022-08-25T01:31:54.714Z,97.50
2022-08-25T01:36:58.339Z,97.50
2022-08-25T01:42:02.868Z,98.10
2022-08-25T01:47:06.047Z,98.30
2022-08-25T01:52:21.927Z,98.80
2022-08-25T01:57:24.186Z,98.80
2022-08-25T02:02:26.121Z,98.60
2022-08-25T02:07:28.114Z,99.00
2022-08-25T02:12:33.514Z,99.10
2022-08-25T02:17:36.805Z,99.90
2022-08-25T02:22:38.564Z,99.90
2022-08-25T02:27:41.938Z,99.90
2022-08-25T02:32:44.434Z,99.90
2022-08-25T02:37:46.398Z,99.90
2022-08-25T02:42:49.106Z,99.90
2022-08-25T02:47:50.858Z,99.90
2022-08-25T02:52:52.643Z,99.90
2022-08-25T02:57:54.364Z,99.90
2022-08-25T03:02:56.119Z,99.90
2022-08-25T03:07:57.921Z,99.90
2022-08-25T03:12:59.651Z,99.90
2022-08-25T03:18:02.097Z,99.90
2022-08-25T03:23:06.448Z,99.90
2022-08-25T03:28:08.834Z,99.90
2022-08-25T03:33:11.131Z,99.90
2022-08-25T03:38:12.867Z,99.90
2022-08-25T03:43:14.817Z,99.90
2022-08-25T03:48:17.676Z,99.90
2022-08-25T03:53:20.310Z,99.90
2022-08-25T03:58:22.107Z,99.90
2022-08-25T04:03:23.913Z,99.90
2022-08-25T04:08:25.657Z,99.90
2022-08-25T04:13:27.377Z,99.90
2022-08-25T04:18:31.113Z,99.90
2022-08-25T04:23:32.978Z,99.90
2022-08-25T04:28:34.721Z,99.90
2022-08-25T04:33:38.161Z,99.90
2022-08-25T04:38:44.668Z,99.90
2022-08-25T04:43:46.573Z,99.90
2022-08-25T04:48:50.541Z,99.90
2022-08-25T04:53:52.794Z,99.90
2022-08-25T04:58:55.405Z,99.90
2022-08-25T05:04:00.819Z,99.90
2022-08-25T05:09:04.208Z,99.90
2022-08-25T05:14:11.516Z,99.90
2022-08-25T05:19:13.503Z,99.90
2022-08-25T05:24:15.640Z,99.90
2022-08-25T05:29:19.468Z,99.60
2022-08-25T05:34:21.634Z,97.30
2022-08-25T05:39:23.381Z,97.20
2022-08-25T05:44:28.623Z,97.10
2022-08-25T05:49:30.373Z,96.20
2022-08-25T05:54:32.549Z,94.80
2022-08-25T05:59:34.271Z,92.60
2022-08-25T06:04:39.605Z,87.40
2022-08-25T06:09:45.917Z,79.10
2022-08-25T06:14:49.458Z,77.30
2022-08-25T06:19:51.191Z,77.10
2022-08-25T06:24:53.291Z,77.20
2022-08-25T06:29:56.040Z,77.20
2022-08-25T06:34:58.962Z,77.50
2022-08-25T06:40:00.945Z,78.30
2022-08-25T06:45:03.084Z,80.30
2022-08-25T06:50:05.489Z,80.20
2022-08-25T06:55:07.881Z,78.40
2022-08-25T07:00:11.195Z,75.80
2022-08-25T07:05:26.913Z,73.70
2022-08-25T07:10:35.505Z,74.90
2022-08-25T07:15:39.939Z,77.90
2022-08-25T07:20:42.639Z,76.20
2022-08-25T07:25:44.425Z,74.20
2022-08-25T07:30:46.576Z,73.80
2022-08-25T07:35:54.215Z,71.20
2022-08-25T07:41:03.316Z,72.10
2022-08-25T07:46:07.149Z,72.30
2022-08-25T07:51:10.670Z,73.40
2022-08-25T07:56:15.189Z,76.30
2022-08-25T08:01:23.089Z,76.50
2022-08-25T08:06:25.727Z,77.30
2022-08-25T08:11:43.752Z,76.30
2022-08-25T08:16:47.593Z,75.10
2022-08-25T08:21:50.662Z,73.00
2022-08-25T08:26:58.970Z,70.60
2022-08-25T08:32:03.231Z,69.80
2022-08-25T08:37:05.206Z,66.80
2022-08-25T08:42:18.063Z,66.10
2022-08-25T08:47:34.635Z,63.70
2022-08-25T08:52:43.273Z,62.50
2022-08-25T09:03:07.561Z,61.60
2022-08-25T09:08:12.493Z,63.10
2022-08-25T09:13:38.335Z,60.40
2022-08-25T09:19:08.567Z,62.80
2022-08-25T09:24:36.304Z,59.40
2022-08-25T09:30:00.347Z,59.90
2022-08-25T09:35:03.506Z,57.70
2022-08-25T09:40:05.904Z,57.10
2022-08-25T09:45:14.321Z,56.10
2022-08-25T09:50:19.975Z,55.60
2022-08-25T09:55:27.317Z,56.40
2022-08-25T10:00:33.480Z,56.80
2022-08-25T10:05:56.311Z,58.10
2022-08-25T10:11:00.456Z,56.50
2022-08-25T10:16:18.053Z,54.60
2022-08-25T10:21:25.898Z,54.00
2022-08-25T10:26:55.562Z,58.40
2022-08-25T10:32:12.713Z,55.80
2022-08-25T10:37:23.473Z,54.60
2022-08-25T10:42:38.607Z,53.70
2022-08-25T10:48:00.320Z,52.40
2022-08-25T10:53:14.483Z,52.80
2022-08-25T10:58:39.075Z,51.00
2022-08-25T11:03:58.343Z,51.40
2022-08-25T11:09:05.456Z,52.20
2022-08-25T11:14:18.731Z,54.90
2022-08-25T11:19:33.680Z,55.30
2022-08-25T11:25:05.711Z,56.70
2022-08-25T11:30:12.411Z,55.10
2022-08-25T11:35:17.092Z,56.60
2022-08-25T11:40:30.855Z,54.40
2022-08-25T11:45:56.829Z,56.90
2022-08-25T11:51:06.685Z,56.70
2022-08-25T11:56:33.353Z,58.10
2022-08-25T12:01:40.098Z,58.90
2022-08-25T12:07:19.026Z,57.40
2022-08-25T12:12:35.676Z,58.60
2022-08-25T12:17:39.609Z,58.40
2022-08-25T12:22:51.407Z,58.70
2022-08-25T12:28:35.231Z,58.40
2022-08-25T12:34:20.495Z,58.10
2022-08-25T12:39:33.686Z,58.10
2022-08-25T12:44:49.569Z,59.10
2022-08-25T12:49:51.452Z,60.00
2022-08-25T12:55:00.320Z,59.20
2022-08-25T13:00:16.000Z,57.40
2022-08-25T13:05:49.785Z,54.40
2022-08-25T13:11:09.446Z,53.60
2022-08-25T13:16:19.701Z,52.20
2022-08-25T13:21:27.602Z,53.60
2022-08-25T13:26:34.416Z,53.00
2022-08-25T13:31:38.455Z,55.90
2022-08-25T13:37:05.331Z,54.80
2022-08-25T13:42:15.982Z,55.70
2022-08-25T13:47:43.842Z,53.00
2022-08-25T13:52:59.357Z,53.00
2022-08-25T13:58:03.603Z,53.30
2022-08-25T14:03:12.642Z,54.20
2022-08-25T14:08:32.908Z,55.80
2022-08-25T14:13:35.302Z,56.30
2022-08-25T14:18:54.444Z,56.20
2022-08-25T14:24:00.425Z,56.50
2022-08-25T14:29:02.497Z,56.90
2022-08-25T14:34:22.112Z,55.60
2022-08-25T14:39:26.290Z,55.70
2022-08-25T14:44:28.084Z,56.40
2022-08-25T14:49:34.981Z,58.20
2022-08-25T14:54:37.705Z,59.10
2022-08-25T14:59:43.210Z,59.10
2022-08-25T15:04:51.835Z,59.40
2022-08-25T15:09:53.804Z,60.30
2022-08-25T15:14:56.257Z,59.70
2022-08-25T15:19:58.026Z,59.20
2022-08-25T15:24:59.870Z,58.30
2022-08-25T15:30:05.318Z,57.70
2022-08-25T15:35:07.756Z,57.10
2022-08-25T15:40:10.563Z,55.40
2022-08-25T15:45:12.588Z,55.20
2022-08-25T15:50:21.965Z,56.10
2022-08-25T15:55:26.041Z,56.30
2022-08-25T16:00:31.770Z,56.90
2022-08-25T16:05:36.228Z,56.80
2022-08-25T16:10:42.117Z,56.50
2022-08-25T16:15:54.088Z,55.80
2022-08-25T16:20:56.398Z,55.00
2022-08-25T16:25:58.128Z,56.30
2022-08-25T16:31:00.698Z,56.50
2022-08-25T16:36:08.554Z,56.50
2022-08-25T16:41:12.807Z,56.90
2022-08-25T16:46:17.300Z,56.60
2022-08-25T16:51:22.783Z,56.80
2022-08-25T16:56:35.114Z,57.70
2022-08-25T17:01:37.864Z,56.60
2022-08-25T17:06:42.714Z,57.30
2022-08-25T17:11:56.779Z,57.10
2022-08-25T17:16:58.649Z,57.30
2022-08-25T17:22:00.586Z,57.30
2022-08-25T17:27:02.326Z,57.50
2022-08-25T17:32:05.188Z,57.60
2022-08-25T17:37:06.970Z,58.30
2022-08-25T17:42:08.959Z,59.60
2022-08-25T17:47:11.324Z,60.50
2022-08-25T17:52:13.178Z,61.00
2022-08-25T17:57:16.106Z,61.40
2022-08-25T18:02:18.009Z,62.00
2022-08-25T18:07:19.779Z,62.90
2022-08-25T18:12:21.661Z,63.20
2022-08-25T18:17:29.229Z,63.50
2022-08-25T18:22:31.985Z,64.10
2022-08-25T18:27:35.382Z,64.90
2022-08-25T18:32:37.230Z,65.00
2022-08-25T18:37:57.551Z,65.50
2022-08-25T18:43:04.265Z,66.70
2022-08-25T18:48:06.508Z,66.60
2022-08-25T18:53:09.877Z,67.00
2022-08-25T18:58:12.080Z,67.70
2022-08-25T19:03:16.010Z,68.20
2022-08-25T19:08:19.818Z,68.80
2022-08-25T19:13:23.661Z,68.60
2022-08-25T19:18:28.857Z,69.10
2022-08-25T19:23:32.557Z,70.10
2022-08-25T19:28:35.886Z,70.20
2022-08-25T19:33:44.645Z,70.50
2022-08-25T19:38:47.460Z,71.00
2022-08-25T19:43:56.185Z,72.40
2022-08-25T19:48:59.971Z,72.80
2022-08-25T19:54:03.433Z,72.90
2022-08-25T19:59:05.235Z,73.10
2022-08-25T20:04:06.982Z,74.50
2022-08-25T20:09:09.225Z,74.50
2022-08-25T20:14:36.388Z,75.10
2022-08-25T20:19:38.158Z,75.70
2022-08-25T20:24:51.022Z,76.30
2022-08-25T20:29:58.300Z,75.90
2022-08-25T20:35:02.014Z,76.90
2022-08-25T20:40:04.475Z,77.60
2022-08-25T20:45:07.669Z,78.20
2022-08-25T20:50:09.755Z,78.30
2022-08-25T20:55:12.368Z,79.30
2022-08-25T21:00:15.387Z,79.50
2022-08-25T21:05:17.711Z,80.30
2022-08-25T21:10:19.663Z,80.30
2022-08-25T21:15:21.487Z,80.50
2022-08-25T21:20:24.624Z,80.60
2022-08-25T21:25:26.368Z,80.20
2022-08-25T21:30:28.652Z,81.30
2022-08-25T21:35:30.995Z,82.10
2022-08-25T21:40:36.683Z,83.00
2022-08-25T21:45:46.355Z,82.80
2022-08-25T21:50:48.798Z,83.60
2022-08-25T21:55:50.560Z,84.00
2022-08-25T22:00:52.361Z,84.40
2022-08-25T22:05:55.267Z,85.00
2022-08-25T22:10:57.672Z,85.50
2022-08-25T22:16:00.204Z,86.20
2022-08-25T22:21:08.587Z,86.80
2022-08-25T22:26:11.029Z,87.60
2022-08-25T22:31:13.574Z,88.20
2022-08-25T22:36:31.981Z,88.60
2022-08-25T22:41:34.294Z,88.80
2022-08-25T22:46:36.365Z,88.60
2022-08-25T22:51:38.224Z,88.30
2022-08-25T22:56:40.514Z,88.50
2022-08-25T23:01:43.915Z,88.60
2022-08-25T23:06:45.957Z,88.50
2022-08-25T23:11:51.311Z,89.00
2022-08-25T23:16:54.416Z,89.40
2022-08-25T23:22:10.398Z,89.30
2022-08-25T23:27:15.845Z,89.70
2022-08-25T23:32:18.757Z,90.10
2022-08-25T23:37:20.501Z,90.40
2022-08-25T23:42:22.259Z,90.60
2022-08-25T23:47:23.993Z,90.90
2022-08-25T23:52:25.792Z,91.20
2022-08-25T23:57:27.698Z,91.30
